createdAt,value
2018-05-21T00:00:35.232Z,82.10
2018-05-21T00:03:01.440Z,82.20
2018-05-21T00:05:28.407Z,82.20
2018-05-21T00:07:55.420Z,82.30
2018-05-21T00:10:21.655Z,82.20
2018-05-21T00:12:47.867Z,82.30
2018-05-21T00:15:14.369Z,82.50
2018-05-21T00:17:40.576Z,82.60
2018-05-21T00:20:06.795Z,82.90
2018-05-21T00:22:33.057Z,83.10
2018-05-21T00:24:59.271Z,83.30
2018-05-21T00:27:25.496Z,83.60
2018-05-21T00:29:52.486Z,84.00
2018-05-21T00:32:18.698Z,84.00
2018-05-21T00:34:44.920Z,84.10
2018-05-21T00:37:11.930Z,84.50
2018-05-21T00:39:38.168Z,84.40
2018-05-21T00:42:04.399Z,84.80
2018-05-21T00:44:30.648Z,85.20
2018-05-21T00:46:56.874Z,85.60
2018-05-21T00:49:23.092Z,86.10
2018-05-21T00:51:50.069Z,87.20
2018-05-21T00:54:16.304Z,87.20
2018-05-21T00:56:42.526Z,88.00
2018-05-21T00:59:09.502Z,89.30
2018-05-21T01:01:35.721Z,89.20
2018-05-21T01:04:02.687Z,90.20
2018-05-21T01:06:29.328Z,90.10
2018-05-21T01:08:56.296Z,90.50
2018-05-21T01:11:23.257Z,90.60
2018-05-21T01:13:50.254Z,90.70
2018-05-21T01:16:16.488Z,90.70
2018-05-21T01:18:42.685Z,91.00
2018-05-21T01:21:09.684Z,91.20
2018-05-21T01:23:35.904Z,91.20
2018-05-21T01:26:02.163Z,91.70
2018-05-21T01:28:28.580Z,91.60
2018-05-21T01:30:54.789Z,91.70
2018-05-21T01:33:20.987Z,91.70
2018-05-21T01:35:47.245Z,92.00
2018-05-21T01:38:13.473Z,92.20
2018-05-21T01:40:39.773Z,92.30
2018-05-21T01:43:06.758Z,92.80
2018-05-21T01:45:32.973Z,92.80
2018-05-21T01:47:59.929Z,93.20
2018-05-21T01:50:26.928Z,93.30
2018-05-21T01:52:53.152Z,93.30
2018-05-21T01:55:19.383Z,93.30
2018-05-21T01:57:45.625Z,93.30
2018-05-21T02:00:11.835Z,93.40
2018-05-21T02:02:38.787Z,93.70
2018-05-21T02:05:05.033Z,93.70
2018-05-21T02:07:31.273Z,93.90
2018-05-21T02:09:57.489Z,93.90
2018-05-21T02:12:23.821Z,94.10
2018-05-21T02:14:50.042Z,94.20
2018-05-21T02:17:16.245Z,94.30
2018-05-21T02:19:43.379Z,94.50
2018-05-21T02:22:09.593Z,94.50
2018-05-21T02:24:35.809Z,94.60
2018-05-21T02:27:02.160Z,94.60
2018-05-21T02:29:28.291Z,94.70
2018-05-21T02:31:54.497Z,94.80
2018-05-21T02:34:20.742Z,94.90
2018-05-21T02:36:47.689Z,95.10
2018-05-21T02:39:13.901Z,95.10
2018-05-21T02:41:40.505Z,95.20
2018-05-21T02:44:07.486Z,95.20
2018-05-21T02:46:33.700Z,95.20
2018-05-21T02:49:00.700Z,95.50
2018-05-21T02:51:26.944Z,95.40
2018-05-21T02:53:53.149Z,95.40
2018-05-21T02:56:19.413Z,95.50
2018-05-21T02:58:45.627Z,95.60
2018-05-21T03:01:11.834Z,95.70
2018-05-21T03:03:38.078Z,95.90
2018-05-21T03:06:04.324Z,96.00
2018-05-21T03:08:31.261Z,96.30
2018-05-21T03:10:57.516Z,96.30
2018-05-21T03:13:23.745Z,96.40
2018-05-21T03:15:49.977Z,96.40
2018-05-21T03:18:16.332Z,96.40
2018-05-21T03:20:42.647Z,96.50
2018-05-21T03:23:08.952Z,96.50
2018-05-21T03:25:35.232Z,96.70
2018-05-21T03:28:01.445Z,96.70
2018-05-21T03:30:27.666Z,96.80
2018-05-21T03:32:54.645Z,97.00
2018-05-21T03:35:20.884Z,97.00
2018-05-21T03:37:47.132Z,97.00
2018-05-21T03:40:13.533Z,97.10
2018-05-21T03:42:39.997Z,97.10
2018-05-21T03:45:06.213Z,97.10
2018-05-21T03:47:32.446Z,97.10
2018-05-21T03:49:58.669Z,97.20
2018-05-21T03:52:24.894Z,97.20
2018-05-21T03:54:51.141Z,97.20
2018-05-21T03:57:17.364Z,97.20
2018-05-21T03:59:55.875Z,97.20
2018-05-21T04:02:34.315Z,97.20
2018-05-21T04:05:00.559Z,97.30
2018-05-21T04:07:26.769Z,97.40
2018-05-21T04:09:53.759Z,97.50
2018-05-21T04:12:20.149Z,97.50
2018-05-21T04:14:46.362Z,97.60
2018-05-21T04:17:12.617Z,97.70
2018-05-21T04:19:39.335Z,97.60
2018-05-21T04:22:05.542Z,97.70
2018-05-21T04:24:32.507Z,97.90
2018-05-21T04:26:59.473Z,98.00
2018-05-21T04:29:26.433Z,98.00
2018-05-21T04:31:52.669Z,98.00
2018-05-21T04:34:18.913Z,98.00
2018-05-21T04:36:45.131Z,98.10
2018-05-21T04:39:12.102Z,98.20
2018-05-21T04:41:38.347Z,98.10
2018-05-21T04:44:04.887Z,98.30
2018-05-21T04:46:31.857Z,98.80
2018-05-21T04:48:58.105Z,98.80
2018-05-21T04:51:24.333Z,98.70
2018-05-21T04:53:51.305Z,98.60
2018-05-21T04:56:17.571Z,98.60
2018-05-21T04:58:43.781Z,98.50
2018-05-21T05:01:10.006Z,98.50
2018-05-21T05:03:36.989Z,98.20
2018-05-21T05:06:03.233Z,98.20
2018-05-21T05:08:29.470Z,98.10
2018-05-21T05:10:55.718Z,97.80
2018-05-21T05:13:21.936Z,97.50
2018-05-21T05:15:48.892Z,96.80
2018-05-21T05:18:15.138Z,96.80
2018-05-21T05:20:41.395Z,96.80
2018-05-21T05:23:07.642Z,96.50
2018-05-21T05:25:33.886Z,96.10
2018-05-21T05:28:00.108Z,96.00
2018-05-21T05:30:26.354Z,96.10
2018-05-21T05:32:52.606Z,96.00
2018-05-21T05:35:18.822Z,95.50
2018-05-21T05:37:45.042Z,95.60
2018-05-21T05:40:12.017Z,95.60
2018-05-21T05:42:38.962Z,95.10
2018-05-21T05:45:06.075Z,95.30
2018-05-21T05:47:32.312Z,95.30
2018-05-21T05:49:58.537Z,94.80
2018-05-21T05:52:24.755Z,94.60
2018-05-21T05:54:51.039Z,94.50
2018-05-21T05:57:17.295Z,94.30
2018-05-21T05:59:43.514Z,94.40
2018-05-21T06:02:09.782Z,94.50
2018-05-21T06:04:36.020Z,94.20
2018-05-21T06:07:02.277Z,93.90
2018-05-21T06:09:29.284Z,93.30
2018-05-21T06:11:55.524Z,93.30
2018-05-21T06:14:21.757Z,93.30
2018-05-21T06:16:48.066Z,92.90
2018-05-21T06:19:15.028Z,92.90
2018-05-21T06:21:41.980Z,92.50
2018-05-21T06:24:08.979Z,92.20
2018-05-21T06:26:35.189Z,92.10
2018-05-21T06:29:02.236Z,92.10
2018-05-21T06:31:29.239Z,92.10
2018-05-21T06:33:55.562Z,92.10
2018-05-21T06:36:21.742Z,92.00
2018-05-21T06:38:48.005Z,91.70
2018-05-21T06:41:14.238Z,91.50
2018-05-21T06:43:40.504Z,91.40
2018-05-21T06:46:07.038Z,91.30
2018-05-21T06:48:33.307Z,91.50
2018-05-21T06:50:59.549Z,91.60
2018-05-21T06:53:25.817Z,91.20
2018-05-21T06:55:52.045Z,91.30
2018-05-21T06:58:18.245Z,91.50
2018-05-21T07:00:44.494Z,91.10
2018-05-21T07:03:11.465Z,90.90
2018-05-21T07:05:38.424Z,90.40
2018-05-21T07:08:04.764Z,90.40
2018-05-21T07:10:30.943Z,90.30
2018-05-21T07:12:57.167Z,90.10
2018-05-21T07:15:23.442Z,90.10
2018-05-21T07:17:49.681Z,90.20
2018-05-21T07:20:15.901Z,89.20
2018-05-21T07:22:42.148Z,88.70
2018-05-21T07:25:08.386Z,88.50
2018-05-21T07:27:34.604Z,88.60
2018-05-21T07:30:00.904Z,87.30
2018-05-21T07:32:27.131Z,88.00
2018-05-21T07:34:53.356Z,86.90
2018-05-21T07:37:19.620Z,86.40
2018-05-21T07:39:45.861Z,86.10
2018-05-21T07:42:12.082Z,86.70
2018-05-21T07:44:38.322Z,86.90
2018-05-21T07:47:04.946Z,85.70
2018-05-21T07:49:31.160Z,84.80
2018-05-21T07:51:58.149Z,85.00
2018-05-21T07:54:24.382Z,85.00
2018-05-21T07:56:50.610Z,85.00
2018-05-21T07:59:16.851Z,84.20
2018-05-21T08:01:43.134Z,83.50
2018-05-21T08:04:09.334Z,83.30
2018-05-21T08:06:35.597Z,82.80
2018-05-21T08:09:01.843Z,82.60
2018-05-21T08:11:28.105Z,82.00
2018-05-21T08:13:54.357Z,82.50
2018-05-21T08:16:21.330Z,82.90
2018-05-21T08:18:48.296Z,82.40
2018-05-21T08:21:14.540Z,82.40
2018-05-21T08:23:40.771Z,81.80
2018-05-21T08:26:07.736Z,80.10
2018-05-21T08:28:34.078Z,80.10
2018-05-21T08:31:01.067Z,78.60
2018-05-21T08:33:27.321Z,78.50
2018-05-21T08:35:53.586Z,79.00
2018-05-21T08:38:19.825Z,78.80
2018-05-21T08:40:46.107Z,78.50
2018-05-21T08:43:12.461Z,78.20
2018-05-21T08:45:38.676Z,78.90
2018-05-21T08:48:05.848Z,77.30
2018-05-21T08:50:32.844Z,76.60
2018-05-21T08:52:59.062Z,76.50
2018-05-21T08:55:25.281Z,75.50
2018-05-21T08:57:51.531Z,74.50
2018-05-21T09:00:17.862Z,74.20
2018-05-21T09:02:44.029Z,74.80
2018-05-21T09:05:10.283Z,74.60
2018-05-21T09:07:36.497Z,73.90
2018-05-21T09:10:02.789Z,73.70
2018-05-21T09:12:29.079Z,74.30
2018-05-21T09:14:56.045Z,73.10
2018-05-21T09:17:22.287Z,73.00
2018-05-21T09:19:48.531Z,71.90
2018-05-21T09:22:14.769Z,71.30
2018-05-21T09:24:41.436Z,71.40
2018-05-21T09:27:07.871Z,69.90
2018-05-21T09:29:34.167Z,68.30
2018-05-21T09:32:00.406Z,68.10
2018-05-21T09:34:27.419Z,66.50
2018-05-21T09:36:53.654Z,66.60
2018-05-21T09:39:19.883Z,66.60
2018-05-21T09:41:46.288Z,68.00
2018-05-21T09:44:12.559Z,68.30
2018-05-21T09:46:38.794Z,67.10
2018-05-21T09:49:06.015Z,62.80
2018-05-21T09:51:32.967Z,62.20
2018-05-21T09:53:59.260Z,62.00
2018-05-21T09:56:25.777Z,62.80
2018-05-21T09:58:51.990Z,62.80
2018-05-21T10:01:18.204Z,61.30
2018-05-21T10:03:44.445Z,59.50
2018-05-21T10:06:10.686Z,58.80
2018-05-21T10:08:36.932Z,56.80
2018-05-21T10:11:03.191Z,56.30
2018-05-21T10:13:29.415Z,54.70
2018-05-21T10:15:55.665Z,52.90
2018-05-21T10:18:21.933Z,52.40
2018-05-21T10:20:48.144Z,51.80
2018-05-21T10:23:14.370Z,50.80
2018-05-21T10:25:40.608Z,48.50
2018-05-21T10:28:06.832Z,46.40
2018-05-21T10:30:33.799Z,46.90
2018-05-21T10:33:00.056Z,46.80
2018-05-21T10:35:26.287Z,44.90
2018-05-21T10:37:52.521Z,44.50
2018-05-21T10:40:18.911Z,42.50
2018-05-21T10:42:45.143Z,42.10
2018-05-21T10:45:11.388Z,43.20
2018-05-21T10:47:37.635Z,42.80
2018-05-21T10:50:04.022Z,42.20
2018-05-21T10:52:31.003Z,41.10
2018-05-21T10:54:57.289Z,41.00
2018-05-21T10:57:23.539Z,40.80
2018-05-21T10:59:49.758Z,39.40
2018-05-21T11:02:16.023Z,38.60
2018-05-21T11:04:42.332Z,38.00
2018-05-21T11:07:08.476Z,37.50
2018-05-21T11:09:34.729Z,39.30
2018-05-21T11:12:00.978Z,38.30
2018-05-21T11:14:27.218Z,38.80
2018-05-21T11:16:53.490Z,37.70
2018-05-21T11:19:19.729Z,37.10
2018-05-21T11:21:46.706Z,35.30
2018-05-21T11:24:12.982Z,35.30
2018-05-21T11:26:39.245Z,35.60
2018-05-21T11:29:05.490Z,35.40
2018-05-21T11:31:31.760Z,35.20
2018-05-21T11:33:58.478Z,35.00
2018-05-21T11:36:26.045Z,35.50
2018-05-21T11:38:52.357Z,35.50
2018-05-21T11:41:18.599Z,35.50
2018-05-21T11:43:44.818Z,34.00
2018-05-21T11:46:11.060Z,33.60
2018-05-21T11:48:37.306Z,32.60
2018-05-21T11:51:03.975Z,32.70
2018-05-21T11:53:30.216Z,32.30
2018-05-21T11:55:56.461Z,32.50
2018-05-21T11:58:22.705Z,32.70
2018-05-21T12:00:49.276Z,32.80
2018-05-21T12:03:16.267Z,32.20
2018-05-21T12:05:42.489Z,31.70
2018-05-21T12:08:08.740Z,32.80
2018-05-21T12:10:34.994Z,32.20
2018-05-21T12:13:01.203Z,31.20
2018-05-21T12:15:28.192Z,31.40
2018-05-21T12:17:54.451Z,31.40
2018-05-21T12:20:20.688Z,31.40
2018-05-21T12:22:46.938Z,30.50
2018-05-21T12:25:13.166Z,30.70
2018-05-21T12:27:39.395Z,30.50
2018-05-21T12:30:05.655Z,30.70
2018-05-21T12:32:31.874Z,31.30
2018-05-21T12:34:58.110Z,31.20
2018-05-21T12:37:24.488Z,32.10
2018-05-21T12:39:50.721Z,31.90
2018-05-21T12:42:16.949Z,30.50
2018-05-21T12:44:43.184Z,30.20
2018-05-21T12:47:09.423Z,29.90
2018-05-21T12:49:35.673Z,30.80
2018-05-21T12:52:02.394Z,33.20
2018-05-21T12:54:28.628Z,33.60
2018-05-21T12:56:55.611Z,32.70
2018-05-21T12:59:21.912Z,32.70
2018-05-21T13:01:48.134Z,32.20
2018-05-21T13:04:14.356Z,31.20
2018-05-21T13:06:40.627Z,30.30
2018-05-21T13:09:06.846Z,30.30
2018-05-21T13:11:33.690Z,29.90
2018-05-21T13:14:00.616Z,29.90
2018-05-21T13:16:27.995Z,30.70
2018-05-21T13:18:54.481Z,32.00
2018-05-21T13:21:20.736Z,32.90
2018-05-21T13:23:46.955Z,33.70
2018-05-21T13:26:13.195Z,36.00
2018-05-21T13:28:39.492Z,37.30
2018-05-21T13:33:33.666Z,38.40
2018-05-21T13:36:00.684Z,38.90
2018-05-21T13:38:28.896Z,39.80
2018-05-21T13:40:55.710Z,39.50
2018-05-21T13:43:22.781Z,36.40
2018-05-21T13:45:49.018Z,36.40
2018-05-21T13:48:15.247Z,35.90
2018-05-21T13:50:41.525Z,36.50
2018-05-21T13:53:07.993Z,36.90
2018-05-21T13:55:34.213Z,36.60
2018-05-21T13:58:00.484Z,37.20
2018-05-21T14:00:26.723Z,38.10
2018-05-21T14:02:52.958Z,39.50
2018-05-21T14:05:19.232Z,41.20
2018-05-21T14:07:46.203Z,42.90
2018-05-21T14:10:12.432Z,43.00
2018-05-21T14:12:39.540Z,44.30
2018-05-21T14:15:05.691Z,44.30
2018-05-21T14:17:31.919Z,44.90
2018-05-21T14:19:58.183Z,45.30
2018-05-21T14:22:24.429Z,45.90
2018-05-21T14:24:50.649Z,46.80
2018-05-21T14:27:16.902Z,47.00
2018-05-21T14:29:43.172Z,46.70
2018-05-21T14:32:09.399Z,46.10
2018-05-21T14:34:35.662Z,46.30
2018-05-21T14:37:02.639Z,44.60
2018-05-21T14:39:28.891Z,44.60
2018-05-21T14:41:55.131Z,44.10
2018-05-21T14:44:21.357Z,44.00
2018-05-21T14:46:47.608Z,44.00
2018-05-21T14:49:13.861Z,43.80
2018-05-21T14:51:40.102Z,41.60
2018-05-21T14:54:07.077Z,40.00
2018-05-21T14:56:33.240Z,39.40
2018-05-21T14:58:59.466Z,37.50
2018-05-21T15:01:25.704Z,36.40
2018-05-21T15:03:52.190Z,36.20
2018-05-21T15:06:18.357Z,35.60
2018-05-21T15:08:44.585Z,35.50
2018-05-21T15:11:10.984Z,33.90
2018-05-21T15:13:37.213Z,33.00
2018-05-21T15:16:03.562Z,33.50
2018-05-21T15:18:29.778Z,34.00
2018-05-21T15:20:56.027Z,34.00
2018-05-21T15:23:22.253Z,35.10
2018-05-21T15:25:48.528Z,36.20
2018-05-21T15:28:14.827Z,36.50
2018-05-21T15:30:41.036Z,36.80
2018-05-21T15:33:07.299Z,38.00
2018-05-21T15:35:33.517Z,39.20
2018-05-21T15:38:00.468Z,41.10
2018-05-21T15:40:26.747Z,41.00
2018-05-21T15:42:52.964Z,41.20
2018-05-21T15:45:19.197Z,41.80
2018-05-21T15:47:46.196Z,42.30
2018-05-21T15:50:12.424Z,42.50
2018-05-21T15:52:38.642Z,43.30
2018-05-21T15:55:05.674Z,44.40
2018-05-21T15:57:31.947Z,44.30
2018-05-21T15:59:58.162Z,44.40
2018-05-21T16:02:24.412Z,44.50
2018-05-21T16:04:50.618Z,44.80
2018-05-21T16:07:16.854Z,45.30
2018-05-21T16:09:43.137Z,45.70
2018-05-21T16:12:10.096Z,47.10
2018-05-21T16:14:36.322Z,46.50
2018-05-21T16:17:02.582Z,46.70
2018-05-21T16:19:29.575Z,47.10
2018-05-21T16:21:55.791Z,47.00
2018-05-21T16:24:22.913Z,47.30
2018-05-21T16:26:49.179Z,47.20
2018-05-21T16:29:16.207Z,48.50
2018-05-21T16:31:42.468Z,47.90
2018-05-21T16:34:10.171Z,48.70
2018-05-21T16:36:37.134Z,48.90
2018-05-21T16:39:03.473Z,48.90
2018-05-21T16:41:30.498Z,49.60
2018-05-21T16:43:56.669Z,49.60
2018-05-21T16:46:23.695Z,50.20
2018-05-21T16:48:49.912Z,50.10
2018-05-21T16:51:16.167Z,50.50
2018-05-21T16:53:42.435Z,51.00
2018-05-21T16:56:09.459Z,51.90
2018-05-21T16:58:35.698Z,51.80
2018-05-21T17:01:02.084Z,52.20
2018-05-21T17:03:29.050Z,52.90
2018-05-21T17:05:55.306Z,52.90
2018-05-21T17:08:21.680Z,53.00
2018-05-21T17:10:48.618Z,53.20
2018-05-21T17:13:14.836Z,53.20
2018-05-21T17:15:41.113Z,53.20
2018-05-21T17:18:07.328Z,53.40
2018-05-21T17:20:33.598Z,53.50
2018-05-21T17:22:59.897Z,53.60
2018-05-21T17:25:26.903Z,54.00
2018-05-21T17:27:53.166Z,54.00
2018-05-21T17:30:19.512Z,53.90
2018-05-21T17:32:45.785Z,54.20
2018-05-21T17:35:12.024Z,54.20
2018-05-21T17:37:38.280Z,54.30
2018-05-21T17:40:04.522Z,54.60
2018-05-21T17:42:30.810Z,55.00
2018-05-21T17:44:57.030Z,55.10
2018-05-21T17:47:23.244Z,55.10
2018-05-21T17:49:49.546Z,55.30
2018-05-21T17:52:16.593Z,55.70
2018-05-21T17:54:42.821Z,55.70
2018-05-21T17:57:09.097Z,56.20
2018-05-21T17:59:36.101Z,56.60
2018-05-21T18:02:02.430Z,56.60
2018-05-21T18:04:28.689Z,56.80
2018-05-21T18:06:54.977Z,57.10
2018-05-21T18:09:21.222Z,57.30
2018-05-21T18:11:48.198Z,58.10
2018-05-21T18:14:14.593Z,58.10
2018-05-21T18:16:40.829Z,58.20
2018-05-21T18:19:07.110Z,58.50
2018-05-21T18:21:34.110Z,58.90
2018-05-21T18:24:00.355Z,58.90
2018-05-21T18:26:26.660Z,59.40
2018-05-21T18:28:53.107Z,59.60
2018-05-21T18:31:19.422Z,59.90
2018-05-21T18:33:45.681Z,60.50
2018-05-21T18:36:12.923Z,61.30
2018-05-21T18:38:39.216Z,61.30
2018-05-21T18:41:05.519Z,61.30
2018-05-21T18:43:31.830Z,61.50
2018-05-21T18:45:58.092Z,61.90
2018-05-21T18:48:24.447Z,62.10
2018-05-21T18:50:50.716Z,62.40
2018-05-21T18:53:16.963Z,62.80
2018-05-21T18:55:43.244Z,63.10
2018-05-21T18:58:09.584Z,63.40
2018-05-21T19:00:35.847Z,63.80
2018-05-21T19:03:02.893Z,63.90
2018-05-21T19:05:29.218Z,65.10
2018-05-21T19:07:55.523Z,64.70
2018-05-21T19:10:21.818Z,64.80
2018-05-21T19:12:48.126Z,65.10
2018-05-21T19:15:14.532Z,65.70
2018-05-21T19:17:40.755Z,66.00
2018-05-21T19:20:07.080Z,66.10
2018-05-21T19:22:33.402Z,66.20
2018-05-21T19:24:59.680Z,66.60
2018-05-21T19:27:25.984Z,66.80
2018-05-21T19:29:52.485Z,67.10
2018-05-21T19:32:19.527Z,67.70
2018-05-21T19:34:45.830Z,67.60
2018-05-21T19:37:12.131Z,67.80
2018-05-21T19:39:39.136Z,68.90
2018-05-21T19:42:05.584Z,68.80
2018-05-21T19:44:31.940Z,69.30
2018-05-21T19:46:58.230Z,70.00
2018-05-21T19:49:26.080Z,71.50
2018-05-21T19:51:52.409Z,71.40
2018-05-21T19:54:18.692Z,71.90
2018-05-21T19:56:44.996Z,72.20
2018-05-21T19:59:11.308Z,72.90
2018-05-21T20:01:37.615Z,73.60
2018-05-21T20:04:04.679Z,75.90
2018-05-21T20:06:31.177Z,76.50
2018-05-21T20:08:57.462Z,76.50
2018-05-21T20:11:24.584Z,78.20
2018-05-21T20:13:51.661Z,78.20
2018-05-21T20:16:17.981Z,79.20
2018-05-21T20:18:44.479Z,80.10
2018-05-21T20:21:10.790Z,81.50
2018-05-21T20:23:37.048Z,82.90
2018-05-21T20:26:04.152Z,85.00
2018-05-21T20:28:30.453Z,85.00
2018-05-21T20:30:57.464Z,86.00
2018-05-21T20:33:23.786Z,86.00
2018-05-21T20:35:50.076Z,86.00
2018-05-21T20:38:16.358Z,86.20
2018-05-21T20:40:42.624Z,86.60
2018-05-21T20:43:08.879Z,86.90
2018-05-21T20:45:35.908Z,87.70
2018-05-21T20:48:02.231Z,87.70
2018-05-21T20:50:28.531Z,88.50
2018-05-21T20:52:54.821Z,87.80
2018-05-21T20:55:25.087Z,88.10
2018-05-21T20:57:51.413Z,88.50
2018-05-21T21:00:17.701Z,88.80
2018-05-21T21:02:43.975Z,89.30
2018-05-21T21:05:10.939Z,90.10
2018-05-21T21:07:37.187Z,90.10
2018-05-21T21:10:03.494Z,90.10
2018-05-21T21:12:29.733Z,90.50
2018-05-21T21:14:55.982Z,90.50
2018-05-21T21:17:22.983Z,90.60
2018-05-21T21:19:49.210Z,90.50
2018-05-21T21:22:15.437Z,90.50
2018-05-21T21:24:41.686Z,90.60
2018-05-21T21:27:07.904Z,90.70
2018-05-21T21:29:34.873Z,90.90
2018-05-21T21:32:01.868Z,90.90
2018-05-21T21:34:28.070Z,90.90
2018-05-21T21:36:54.327Z,90.90
2018-05-21T21:39:20.585Z,90.90
2018-05-21T21:41:46.833Z,91.00
2018-05-21T21:44:13.077Z,91.00
2018-05-21T21:46:39.321Z,91.00
2018-05-21T21:49:05.575Z,91.10
2018-05-21T21:51:31.794Z,91.20
2018-05-21T21:53:58.286Z,91.40
2018-05-21T21:56:25.239Z,91.80
2018-05-21T21:58:51.469Z,91.60
2018-05-21T22:01:17.908Z,91.70
2018-05-21T22:03:44.147Z,91.70
2018-05-21T22:06:10.374Z,91.70
2018-05-21T22:08:36.622Z,91.70
2018-05-21T22:11:02.844Z,91.90
2018-05-21T22:13:29.050Z,92.00
2018-05-21T22:15:56.073Z,92.10
2018-05-21T22:18:22.300Z,92.10
2018-05-21T22:20:48.527Z,92.30
2018-05-21T22:23:15.276Z,92.30
2018-05-21T22:25:41.538Z,92.40
2018-05-21T22:28:07.756Z,92.40
2018-05-21T22:30:34.156Z,92.50
2018-05-21T22:33:01.112Z,92.70
2018-05-21T22:35:28.066Z,92.80
2018-05-21T22:37:55.038Z,92.80
2018-05-21T22:40:21.996Z,92.90
2018-05-21T22:42:48.855Z,92.80
2018-05-21T22:45:15.134Z,92.90
2018-05-21T22:47:41.374Z,93.00
2018-05-21T22:50:07.610Z,93.10
2018-05-21T22:52:33.864Z,93.20
2018-05-21T22:55:00.098Z,93.30
2018-05-21T22:57:26.358Z,93.40
2018-05-21T22:59:52.714Z,93.60
2018-05-21T23:02:18.959Z,93.80
2018-05-21T23:04:45.915Z,94.10
2018-05-21T23:07:12.910Z,94.20
2018-05-21T23:09:39.869Z,94.30
2018-05-21T23:12:06.100Z,94.60
2018-05-21T23:14:32.437Z,94.40
2018-05-21T23:16:58.619Z,94.40
2018-05-21T23:19:24.822Z,94.40
2018-05-21T23:21:51.069Z,94.40
2018-05-21T23:24:17.287Z,94.40
2018-05-21T23:26:44.227Z,94.70
2018-05-21T23:29:10.478Z,94.70
2018-05-21T23:31:37.433Z,94.90
2018-05-21T23:34:04.393Z,95.00
2018-05-21T23:36:31.383Z,95.00
2018-05-21T23:38:57.618Z,95.00
2018-05-21T23:41:23.823Z,94.90
2018-05-21T23:43:50.083Z,95.00
2018-05-21T23:46:17.081Z,95.20
2018-05-21T23:48:43.284Z,95.20
2018-05-21T23:51:09.581Z,95.30
2018-05-21T23:53:35.762Z,95.30
2018-05-21T23:56:02.748Z,95.60
2018-05-21T23:58:29.141Z,95.60
